Sir Randy J — WDG7206 — position and weather

sailwx.info

Track history (hours):
 
Tides and Currents Weather Stations Pressure Air Temp Water Temp Dewpoint Dewpoint Depression Visibility Wind Speed Wind Dir Waves Ship Positions

Sir Randy J

Owner: Canton Marine Towing Co., Inc., Canton, MO. More information available from US FCC via Universal Licensing System and Coast Guard Vessel Documentation Center.

Last reported at 2018-Jan-19 19:30 UTC. Time now 2018-Jan-20 15:27 UTC.
Position N 39°04' W 090°42'.

Length 20 m.

Type: Towing. MMSI: 367564950.

Date/timePositionNaut miles runAvg speedWind from/ knotsBaromVisibWave heightAir tempDewpointWater temp
2018-Jan-19 19:30N 39°04' W 090°42'2 4.1
2018-Jan-19 18:58N 39°02' W 090°42'2 2.4
2018-Jan-19 18:20N 39°00' W 090°41'3 5.1
2018-Jan-19 17:43N 38°57' W 090°40'1 5.1
2018-Jan-19 17:30N 38°56' W 090°40'3 5.2
2018-Jan-19 17:00N 38°54' W 090°38'2 4.6
2018-Jan-19 16:30N 38°52' W 090°36'1 2.8
2018-Jan-19 16:00N 38°52' W 090°35'1 2.4
2018-Jan-19 15:30N 38°52' W 090°33'0 0.8
2018-Jan-19 15:00N 38°53' W 090°33'1 1.4
2018-Jan-19 14:30N 38°53' W 090°32'1 2.3
2018-Jan-19 14:00N 38°54' W 090°31'2 3.2
2018-Jan-19 13:30N 38°55' W 090°30'2 3.5
2018-Jan-19 13:00N 38°57' W 090°29'1 1.7
2018-Jan-19 12:30N 38°57' W 090°28'0 0.0
2018-Jan-19 12:00N 38°57' W 090°28'2 3.5
2018-Jan-19 11:30N 38°58' W 090°26'3 5.0
2018-Jan-19 11:00N 38°57' W 090°23'2 4.7
2018-Jan-19 10:30N 38°56' W 090°20'2 5.0
2018-Jan-19 10:00N 38°55' W 090°17'2 4.6
2018-Jan-19 09:30N 38°55' W 090°14'2 3.9
2018-Jan-19 09:00N 38°54' W 090°12'3 5.2
2018-Jan-19 08:30N 38°52' W 090°09'1 1.3
2018-Jan-19 08:00N 38°52' W 090°09'3 5.1
2018-Jan-19 07:30N 38°50' W 090°07'3 5.8
2018-Jan-19 06:57N 38°47' W 090°08'3 5.6
2018-Jan-19 06:29N 38°45' W 090°09'3 2.8
2018-Jan-19 05:20N 38°42' W 090°11'1 3.9
2018-Jan-19 05:00N 38°40' W 090°11'3 2.5
2018-Jan-19 03:52N 38°38' W 090°11'1 0.4
2018-Jan-19 02:13N 38°37' W 090°11'0 0.1
2018-Jan-19 01:55N 38°37' W 090°11'1 1.7
2018-Jan-19 01:27N 38°38' W 090°11'1 0.9
2018-Jan-19 00:26N 38°39' W 090°11'2 4.9
2018-Jan-19 00:00N 38°41' W 090°11'2 2.1
2018-Jan-18 23:13N 38°42' W 090°11'1 3.6
2018-Jan-18 22:50N 38°44' W 090°10'2 4.9
2018-Jan-18 22:30N 38°45' W 090°09'3 4.4
2018-Jan-18 21:54N 38°47' W 090°07'3 6.5
2018-Jan-18 21:30N 38°50' W 090°07'3 5.8
2018-Jan-18 21:00N 38°52' W 090°09'0 0.7
2018-Jan-18 20:30N 38°52' W 090°09'0 0.0
2018-Jan-18 20:00N 38°52' W 090°09'0 0.3
2018-Jan-18 19:30N 38°52' W 090°09'0 0.0
2018-Jan-18 19:00N 38°52' W 090°09'0 0.0
2018-Jan-18 18:30N 38°52' W 090°09'0 0.0
2018-Jan-18 18:00N 38°52' W 090°09'0 0.0
2018-Jan-18 17:30N 38°52' W 090°09'0 0.0
2018-Jan-18 17:00N 38°52' W 090°09'0 0.0
2018-Jan-18 16:30N 38°52' W 090°09'0 0.0
2018-Jan-18 16:00N 38°52' W 090°09'0 0.0
2018-Jan-18 15:30N 38°52' W 090°09'1 2.9
2018-Jan-18 15:00N 38°53' W 090°11'3 5.6
2018-Jan-18 14:30N 38°55' W 090°14'3 5.7
2018-Jan-18 14:00N 38°55' W 090°17'3 5.5
2018-Jan-18 13:30N 38°56' W 090°21'2 5.0
2018-Jan-18 13:00N 38°58' W 090°23'3 6.0
2018-Jan-18 12:30N 38°57' W 090°27'2 4.1
2018-Jan-18 12:00N 38°56' W 090°29'1 2.3
2018-Jan-18 11:30N 38°55' W 090°30'1 2.3
2018-Jan-18 11:00N 38°54' W 090°31'2 3.4
2018-Jan-18 10:30N 38°53' W 090°32'0 0.4
2018-Jan-18 10:00N 38°53' W 090°32'0 0.2
2018-Jan-18 09:30N 38°53' W 090°32'1 1.4
2018-Jan-18 09:00N 38°53' W 090°32'0 0.7
2018-Jan-18 08:30N 38°53' W 090°32'0 0.9
2018-Jan-18 08:00N 38°53' W 090°32'1 1.5
2018-Jan-18 07:30N 38°53' W 090°32'1 1.8
2018-Jan-18 07:00N 38°52' W 090°33'0 0.0
2018-Jan-18 06:30N 38°52' W 090°33'1 2.7
2018-Jan-18 06:00N 38°52' W 090°35'0 0.6
2018-Jan-18 05:30N 38°52' W 090°36'1 1.8
2018-Jan-18 05:00N 38°52' W 090°37'1 2.9
2018-Jan-18 04:30N 38°54' W 090°38'3 5.3
2018-Jan-18 04:00N 38°56' W 090°40'3 6.1
2018-Jan-18 03:30N 38°59' W 090°40'2 3.5
2018-Jan-18 03:00N 39°00' W 090°41'0 0.5
2018-Jan-18 02:30N 39°00' W 090°42'1 2.3
2018-Jan-18 02:00N 39°02' W 090°42'2 3.1
2018-Jan-18 01:30N 39°03' W 090°43'3 4.5
2018-Jan-18 00:52N 39°05' W 090°41'2 2.3
2018-Jan-18 00:00N 39°07' W 090°41'0 1.1
2018-Jan-17 23:55N 39°07' W 090°41'  
2018-Jan-11 19:39N 39°04' W 090°42'1 6.0
2018-Jan-11 19:30N 39°03' W 090°43'2 4.5
2018-Jan-11 19:00N 39°01' W 090°42'1 1.9
2018-Jan-11 18:30N 39°00' W 090°41'1 1.1
2018-Jan-11 17:58N 38°60' W 090°41'2 5.2
2018-Jan-11 17:30N 38°57' W 090°40'3 5.2
2018-Jan-11 17:00N 38°55' W 090°39'2 5.0
2018-Jan-11 16:30N 38°53' W 090°37'2 5.0
2018-Jan-11 16:00N 38°52' W 090°34'2 3.8
2018-Jan-11 15:30N 38°53' W 090°32'1 2.5
2018-Jan-11 15:00N 38°54' W 090°31'2 4.0
2018-Jan-11 14:30N 38°56' W 090°30'2 4.3
2018-Jan-11 14:00N 38°57' W 090°28'2 4.3
2018-Jan-11 13:30N 38°58' W 090°25'3 5.2
2018-Jan-11 13:00N 38°57' W 090°22'2 4.3
2018-Jan-11 12:30N 38°56' W 090°20'2 4.5
2018-Jan-11 12:00N 38°55' W 090°17'2 3.9
2018-Jan-11 11:30N 38°55' W 090°14'3 5.4
2018-Jan-11 11:00N 38°54' W 090°12'2 4.6
2018-Jan-11 10:30N 38°52' W 090°09'0 1.0
2018-Jan-11 10:00N 38°52' W 090°09'2 3.8
2018-Jan-11 09:30N 38°51' W 090°07'0 0.2
2018-Jan-11 09:00N 38°51' W 090°07'0 0.0
2018-Jan-11 08:30N 38°51' W 090°07'0 0.2
2018-Jan-11 08:00N 38°51' W 090°07'2 4.3
2018-Jan-11 07:30N 38°49' W 090°07'8 4.5
2018-Jan-11 05:44N 38°42' W 090°11'1 3.3
2018-Jan-11 05:30N 38°41' W 090°11'1 2.6
2018-Jan-11 05:00N 38°40' W 090°11'2 0.9
2018-Jan-11 02:46N 38°38' W 090°11'1 0.3
2018-Jan-10 22:50N 38°39' W 090°11'0 0.2
2018-Jan-10 22:12N 38°39' W 090°11'0 0.4
2018-Jan-10 21:54N 38°39' W 090°11'1 3.0
2018-Jan-10 21:24N 38°40' W 090°11'2 3.1
2018-Jan-10 20:40N 38°42' W 090°11'1 4.0
2018-Jan-10 20:24N 38°43' W 090°10'2 5.3
2018-Jan-10 20:00N 38°45' W 090°09'3 5.7
2018-Jan-10 19:30N 38°48' W 090°07'3 6.6
2018-Jan-10 19:00N 38°51' W 090°07'2 3.8
2018-Jan-10 18:28N 38°52' W 090°09'2 4.5
2018-Jan-10 18:00N 38°53' W 090°11'3 6.1
2018-Jan-10 17:30N 38°55' W 090°14'3 6.5
2018-Jan-10 17:00N 38°55' W 090°19'3 5.9
2018-Jan-10 16:30N 38°57' W 090°22'3 5.9
2018-Jan-10 16:00N 38°58' W 090°25'2 4.1
2018-Jan-10 15:30N 38°57' W 090°28'2 4.2
2018-Jan-10 15:00N 38°56' W 090°30'2 4.7
2018-Jan-10 14:30N 38°54' W 090°31'2 4.8
2018-Jan-10 14:00N 38°52' W 090°34'2 4.6
2018-Jan-10 13:30N 38°52' W 090°37'2 4.6
2018-Jan-10 13:00N 38°54' W 090°38'3 5.4
2018-Jan-10 12:30N 38°57' W 090°40'2 4.5
2018-Jan-10 12:00N 38°59' W 090°41'1 2.8
2018-Jan-10 11:28N 39°00' W 090°41'0 0.0
2018-Jan-10 11:00N 39°00' W 090°41'0 0.0
2018-Jan-10 10:30N 39°00' W 090°41'0 0.0
2018-Jan-10 10:00N 39°00' W 090°41'0 0.0
2018-Jan-10 09:30N 39°00' W 090°41'0 0.0
2018-Jan-10 09:00N 39°00' W 090°41'0 0.0
2018-Jan-10 08:30N 39°00' W 090°41'0 0.0
2018-Jan-10 08:00N 39°00' W 090°41'0 0.0
2018-Jan-10 07:30N 39°00' W 090°41'0 0.0
2018-Jan-10 07:00N 39°00' W 090°41'0 0.0
2018-Jan-10 06:30N 39°00' W 090°41'0 0.0
2018-Jan-10 06:00N 39°00' W 090°41'0 0.0
2018-Jan-10 05:30N 39°00' W 090°41'0 0.0
2018-Jan-10 05:00N 39°00' W 090°41'0 0.6
2018-Jan-10 04:30N 39°00' W 090°41'2 3.4
2018-Jan-10 04:00N 39°02' W 090°42'3 4.2
2018-Jan-10 03:11N 39°05' W 090°41'1 5.3
2018-Jan-10 02:58N 39°06' W 090°41'2 4.5
2018-Jan-10 02:30N 39°08' W 090°42'3 4.4
2018-Jan-10 01:46N 39°11' W 090°43'3 6.1
2018-Jan-10 01:19N 39°14' W 090°43'  
Track history (hours):
 
Tides and Currents Weather Stations Pressure Air Temp Water Temp Dewpoint Dewpoint Depression Visibility Wind Speed Wind Dir Waves Ship Positions

Sir Randy J

Owner: Canton Marine Towing Co., Inc., Canton, MO. More information available from US FCC via Universal Licensing System and Coast Guard Vessel Documentation Center.

Last reported at 2018-Jan-19 19:30 UTC. Time now 2018-Jan-20 15:27 UTC.
Position N 39°04' W 090°42'.

Length 20 m.

Type: Towing. MMSI: 367564950.

Date/timePositionNaut miles runAvg speedWind from/ knotsBaromVisibWave heightAir tempDewpointWater temp
2018-Jan-19 19:30N 39°04' W 090°42'2 4.1
2018-Jan-19 18:58N 39°02' W 090°42'2 2.4
2018-Jan-19 18:20N 39°00' W 090°41'3 5.1
2018-Jan-19 17:43N 38°57' W 090°40'1 5.1
2018-Jan-19 17:30N 38°56' W 090°40'3 5.2
2018-Jan-19 17:00N 38°54' W 090°38'2 4.6
2018-Jan-19 16:30N 38°52' W 090°36'1 2.8
2018-Jan-19 16:00N 38°52' W 090°35'1 2.4
2018-Jan-19 15:30N 38°52' W 090°33'0 0.8
2018-Jan-19 15:00N 38°53' W 090°33'1 1.4
2018-Jan-19 14:30N 38°53' W 090°32'1 2.3
2018-Jan-19 14:00N 38°54' W 090°31'2 3.2
2018-Jan-19 13:30N 38°55' W 090°30'2 3.5
2018-Jan-19 13:00N 38°57' W 090°29'1 1.7
2018-Jan-19 12:30N 38°57' W 090°28'0 0.0
2018-Jan-19 12:00N 38°57' W 090°28'2 3.5
2018-Jan-19 11:30N 38°58' W 090°26'3 5.0
2018-Jan-19 11:00N 38°57' W 090°23'2 4.7
2018-Jan-19 10:30N 38°56' W 090°20'2 5.0
2018-Jan-19 10:00N 38°55' W 090°17'2 4.6
2018-Jan-19 09:30N 38°55' W 090°14'2 3.9
2018-Jan-19 09:00N 38°54' W 090°12'3 5.2
2018-Jan-19 08:30N 38°52' W 090°09'1 1.3
2018-Jan-19 08:00N 38°52' W 090°09'3 5.1
2018-Jan-19 07:30N 38°50' W 090°07'3 5.8
2018-Jan-19 06:57N 38°47' W 090°08'3 5.6
2018-Jan-19 06:29N 38°45' W 090°09'3 2.8
2018-Jan-19 05:20N 38°42' W 090°11'1 3.9
2018-Jan-19 05:00N 38°40' W 090°11'3 2.5
2018-Jan-19 03:52N 38°38' W 090°11'1 0.4
2018-Jan-19 02:13N 38°37' W 090°11'0 0.1
2018-Jan-19 01:55N 38°37' W 090°11'1 1.7
2018-Jan-19 01:27N 38°38' W 090°11'1 0.9
2018-Jan-19 00:26N 38°39' W 090°11'2 4.9
2018-Jan-19 00:00N 38°41' W 090°11'2 2.1
2018-Jan-18 23:13N 38°42' W 090°11'1 3.6
2018-Jan-18 22:50N 38°44' W 090°10'2 4.9
2018-Jan-18 22:30N 38°45' W 090°09'3 4.4
2018-Jan-18 21:54N 38°47' W 090°07'3 6.5
2018-Jan-18 21:30N 38°50' W 090°07'3 5.8
2018-Jan-18 21:00N 38°52' W 090°09'0 0.7
2018-Jan-18 20:30N 38°52' W 090°09'0 0.0
2018-Jan-18 20:00N 38°52' W 090°09'0 0.3
2018-Jan-18 19:30N 38°52' W 090°09'0 0.0
2018-Jan-18 19:00N 38°52' W 090°09'0 0.0
2018-Jan-18 18:30N 38°52' W 090°09'0 0.0
2018-Jan-18 18:00N 38°52' W 090°09'0 0.0
2018-Jan-18 17:30N 38°52' W 090°09'0 0.0
2018-Jan-18 17:00N 38°52' W 090°09'0 0.0
2018-Jan-18 16:30N 38°52' W 090°09'0 0.0
2018-Jan-18 16:00N 38°52' W 090°09'0 0.0
2018-Jan-18 15:30N 38°52' W 090°09'1 2.9
2018-Jan-18 15:00N 38°53' W 090°11'3 5.6
2018-Jan-18 14:30N 38°55' W 090°14'3 5.7
2018-Jan-18 14:00N 38°55' W 090°17'3 5.5
2018-Jan-18 13:30N 38°56' W 090°21'2 5.0
2018-Jan-18 13:00N 38°58' W 090°23'3 6.0
2018-Jan-18 12:30N 38°57' W 090°27'2 4.1
2018-Jan-18 12:00N 38°56' W 090°29'1 2.3
2018-Jan-18 11:30N 38°55' W 090°30'1 2.3
2018-Jan-18 11:00N 38°54' W 090°31'2 3.4
2018-Jan-18 10:30N 38°53' W 090°32'0 0.4
2018-Jan-18 10:00N 38°53' W 090°32'0 0.2
2018-Jan-18 09:30N 38°53' W 090°32'1 1.4
2018-Jan-18 09:00N 38°53' W 090°32'0 0.7
2018-Jan-18 08:30N 38°53' W 090°32'0 0.9
2018-Jan-18 08:00N 38°53' W 090°32'1 1.5
2018-Jan-18 07:30N 38°53' W 090°32'1 1.8
2018-Jan-18 07:00N 38°52' W 090°33'0 0.0
2018-Jan-18 06:30N 38°52' W 090°33'1 2.7
2018-Jan-18 06:00N 38°52' W 090°35'0 0.6
2018-Jan-18 05:30N 38°52' W 090°36'1 1.8
2018-Jan-18 05:00N 38°52' W 090°37'1 2.9
2018-Jan-18 04:30N 38°54' W 090°38'3 5.3
2018-Jan-18 04:00N 38°56' W 090°40'3 6.1
2018-Jan-18 03:30N 38°59' W 090°40'2 3.5
2018-Jan-18 03:00N 39°00' W 090°41'0 0.5
2018-Jan-18 02:30N 39°00' W 090°42'1 2.3
2018-Jan-18 02:00N 39°02' W 090°42'2 3.1
2018-Jan-18 01:30N 39°03' W 090°43'3 4.5
2018-Jan-18 00:52N 39°05' W 090°41'2 2.3
2018-Jan-18 00:00N 39°07' W 090°41'0 1.1
2018-Jan-17 23:55N 39°07' W 090°41'  
2018-Jan-11 19:39N 39°04' W 090°42'1 6.0
2018-Jan-11 19:30N 39°03' W 090°43'2 4.5
2018-Jan-11 19:00N 39°01' W 090°42'1 1.9
2018-Jan-11 18:30N 39°00' W 090°41'1 1.1
2018-Jan-11 17:58N 38°60' W 090°41'2 5.2
2018-Jan-11 17:30N 38°57' W 090°40'3 5.2
2018-Jan-11 17:00N 38°55' W 090°39'2 5.0
2018-Jan-11 16:30N 38°53' W 090°37'2 5.0
2018-Jan-11 16:00N 38°52' W 090°34'2 3.8
2018-Jan-11 15:30N 38°53' W 090°32'1 2.5
2018-Jan-11 15:00N 38°54' W 090°31'2 4.0
2018-Jan-11 14:30N 38°56' W 090°30'2 4.3
2018-Jan-11 14:00N 38°57' W 090°28'2 4.3
2018-Jan-11 13:30N 38°58' W 090°25'3 5.2
2018-Jan-11 13:00N 38°57' W 090°22'2 4.3
2018-Jan-11 12:30N 38°56' W 090°20'2 4.5
2018-Jan-11 12:00N 38°55' W 090°17'2 3.9
2018-Jan-11 11:30N 38°55' W 090°14'3 5.4
2018-Jan-11 11:00N 38°54' W 090°12'2 4.6
2018-Jan-11 10:30N 38°52' W 090°09'0 1.0
2018-Jan-11 10:00N 38°52' W 090°09'2 3.8
2018-Jan-11 09:30N 38°51' W 090°07'0 0.2
2018-Jan-11 09:00N 38°51' W 090°07'0 0.0
2018-Jan-11 08:30N 38°51' W 090°07'0 0.2
2018-Jan-11 08:00N 38°51' W 090°07'2 4.3
2018-Jan-11 07:30N 38°49' W 090°07'8 4.5
2018-Jan-11 05:44N 38°42' W 090°11'1 3.3
2018-Jan-11 05:30N 38°41' W 090°11'1 2.6
2018-Jan-11 05:00N 38°40' W 090°11'2 0.9
2018-Jan-11 02:46N 38°38' W 090°11'1 0.3
2018-Jan-10 22:50N 38°39' W 090°11'0 0.2
2018-Jan-10 22:12N 38°39' W 090°11'0 0.4
2018-Jan-10 21:54N 38°39' W 090°11'1 3.0
2018-Jan-10 21:24N 38°40' W 090°11'2 3.1
2018-Jan-10 20:40N 38°42' W 090°11'1 4.0
2018-Jan-10 20:24N 38°43' W 090°10'2 5.3
2018-Jan-10 20:00N 38°45' W 090°09'3 5.7
2018-Jan-10 19:30N 38°48' W 090°07'3 6.6
2018-Jan-10 19:00N 38°51' W 090°07'2 3.8
2018-Jan-10 18:28N 38°52' W 090°09'2 4.5
2018-Jan-10 18:00N 38°53' W 090°11'3 6.1
2018-Jan-10 17:30N 38°55' W 090°14'3 6.5
2018-Jan-10 17:00N 38°55' W 090°19'3 5.9
2018-Jan-10 16:30N 38°57' W 090°22'3 5.9
2018-Jan-10 16:00N 38°58' W 090°25'2 4.1
2018-Jan-10 15:30N 38°57' W 090°28'2 4.2
2018-Jan-10 15:00N 38°56' W 090°30'2 4.7
2018-Jan-10 14:30N 38°54' W 090°31'2 4.8
2018-Jan-10 14:00N 38°52' W 090°34'2 4.6
2018-Jan-10 13:30N 38°52' W 090°37'2 4.6
2018-Jan-10 13:00N 38°54' W 090°38'3 5.4
2018-Jan-10 12:30N 38°57' W 090°40'2 4.5
2018-Jan-10 12:00N 38°59' W 090°41'1 2.8
2018-Jan-10 11:28N 39°00' W 090°41'0 0.0
2018-Jan-10 11:00N 39°00' W 090°41'0 0.0
2018-Jan-10 10:30N 39°00' W 090°41'0 0.0
2018-Jan-10 10:00N 39°00' W 090°41'0 0.0
2018-Jan-10 09:30N 39°00' W 090°41'0 0.0
2018-Jan-10 09:00N 39°00' W 090°41'0 0.0
2018-Jan-10 08:30N 39°00' W 090°41'0 0.0
2018-Jan-10 08:00N 39°00' W 090°41'0 0.0
2018-Jan-10 07:30N 39°00' W 090°41'0 0.0
2018-Jan-10 07:00N 39°00' W 090°41'0 0.0
2018-Jan-10 06:30N 39°00' W 090°41'0 0.0
2018-Jan-10 06:00N 39°00' W 090°41'0 0.0
2018-Jan-10 05:30N 39°00' W 090°41'0 0.0
2018-Jan-10 05:00N 39°00' W 090°41'0 0.6
2018-Jan-10 04:30N 39°00' W 090°41'2 3.4
2018-Jan-10 04:00N 39°02' W 090°42'3 4.2
2018-Jan-10 03:11N 39°05' W 090°41'1 5.3
2018-Jan-10 02:58N 39°06' W 090°41'2 4.5
2018-Jan-10 02:30N 39°08' W 090°42'3 4.4
2018-Jan-10 01:46N 39°11' W 090°43'3 6.1
2018-Jan-10 01:19N 39°14' W 090°43'  

Dump ship's entire track history